Time;durP1;ratioP1;P1;durP2;ratioP2;P2;SDS_P1;SDS_P2;PMS_P1;PMS_P2;Temp;Humidity;BMP_temperature;BMP_pressure;BME280_temperature;BME280_humidity;BME280_pressure;Samples;Min_cycle;Max_cycle;Signal;HPM_P1;HPM_P2
2022/06/24 00:01:59;;;;;;;9.55;2.72;;;;;;;22.34;66.51;98605.56;5156564;28;20598;-73
2022/06/24 00:04:53;;;;;;;3.35;1.02;;;;;;;22.12;67.06;98595.25;5160882;28;20069;-73
2022/06/24 00:07:52;;;;;;;5.45;1.13;;;;;;;22.04;67.09;98593.66;5156741;28;20072;-73
2022/06/24 00:10:43;;;;;;;5.03;1.30;;;;;;;22.26;66.60;98590.50;5160318;28;20057;-73
2022/06/24 00:13:40;;;;;;;5.47;1.40;;;;;;;22.25;67.00;98575.34;5157542;28;20173;-73
2022/06/24 00:16:31;;;;;;;9.73;1.55;;;;;;;22.09;67.95;98592.19;5157003;28;20529;-72
2022/06/24 00:19:23;;;;;;;4.22;1.10;;;;;;;21.84;68.56;98595.78;5161177;28;20116;-73
2022/06/24 00:22:13;;;;;;;6.70;1.58;;;;;;;21.65;69.49;98586.88;5159554;28;20046;-73
2022/06/24 00:25:17;;;;;;;5.13;1.40;;;;;;;21.46;69.05;98585.25;5157968;28;20061;-73
2022/06/24 00:28:09;;;;;;;4.63;1.15;;;;;;;21.55;69.48;98586.56;5158828;28;20077;-72
2022/06/24 00:31:02;;;;;;;5.18;1.30;;;;;;;21.58;69.07;98570.75;5159385;28;20050;-73
2022/06/24 00:33:53;;;;;;;7.18;1.58;;;;;;;21.77;68.65;98593.16;5160408;28;20501;-71
2022/06/24 00:36:43;;;;;;;4.90;1.33;;;;;;;21.71;68.23;98580.56;5160493;28;20072;-72
2022/06/24 00:39:35;;;;;;;10.73;1.70;;;;;;;21.77;68.18;98578.84;5154772;28;20050;-72
2022/06/24 00:42:26;;;;;;;10.10;1.40;;;;;;;21.49;69.03;98566.75;5160380;28;20046;-74
2022/06/24 00:45:35;;;;;;;9.05;1.50;;;;;;;21.59;69.52;98577.00;5159204;28;20061;-72
2022/06/24 00:48:28;;;;;;;5.20;1.70;;;;;;;21.68;68.98;98575.63;5159114;28;20081;-70
2022/06/24 00:51:20;;;;;;;4.18;1.33;;;;;;;21.52;69.57;98576.22;5155597;28;20049;-71
2022/06/24 00:54:13;;;;;;;3.05;1.33;;;;;;;21.74;68.66;98563.94;5158969;28;20092;-71
2022/06/24 00:57:04;;;;;;;7.40;2.15;;;;;;;21.63;68.92;98556.63;5158295;28;20058;-74
2022/06/24 00:59:55;;;;;;;4.60;1.38;;;;;;;21.53;69.33;98545.53;5160266;28;20057;-73
2022/06/24 01:02:47;;;;;;;5.25;1.38;;;;;;;21.54;68.75;98542.59;5158127;28;20424;-69
2022/06/24 01:05:37;;;;;;;5.78;1.50;;;;;;;21.47;68.78;98525.66;5145970;28;20460;-71
2022/06/24 01:08:27;;;;;;;7.40;1.30;;;;;;;21.53;67.98;98526.66;5159787;28;20050;-70
2022/06/24 01:11:28;;;;;;;3.63;1.48;;;;;;;21.51;69.08;98521.47;5159904;28;20604;-74
2022/06/24 01:14:18;;;;;;;4.70;1.33;;;;;;;21.55;69.55;98508.34;5159896;28;20073;-71
2022/06/24 01:17:09;;;;;;;9.13;1.67;;;;;;;21.50;69.84;98525.22;5162125;28;20405;-72
2022/06/24 01:19:59;;;;;;;7.88;1.50;;;;;;;21.65;68.90;98526.69;5161872;28;20073;-69
2022/06/24 01:22:49;;;;;;;8.60;1.88;;;;;;;21.22;69.50;98493.34;5163907;28;20156;-74
2022/06/24 01:25:39;;;;;;;8.95;1.25;;;;;;;21.26;70.00;98510.75;5158907;28;20054;-73
2022/06/24 01:28:29;;;;;;;5.65;1.77;;;;;;;21.15;71.08;98505.25;5164311;28;20054;-70
2022/06/24 01:31:19;;;;;;;3.67;1.65;;;;;;;20.95;71.56;98489.28;5163232;28;20125;-72
2022/06/24 01:34:10;;;;;;;7.43;1.90;;;;;;;20.82;72.06;98495.63;5162667;28;20140;-72
2022/06/24 01:37:00;;;;;;;4.20;1.65;;;;;;;20.83;71.56;98481.13;5162352;28;20057;-69
2022/06/24 01:39:50;;;;;;;8.90;1.70;;;;;;;21.20;70.64;98497.34;5165454;28;20104;-72
2022/06/24 01:42:40;;;;;;;8.85;2.40;;;;;;;21.30;70.10;98505.72;5164336;28;20050;-71
2022/06/24 01:45:30;;;;;;;6.32;2.03;;;;;;;21.24;69.86;98495.84;5160793;28;20077;-71
2022/06/24 01:48:21;;;;;;;8.02;2.03;;;;;;;21.29;69.44;98490.56;5162825;28;20081;-73
2022/06/24 01:51:13;;;;;;;7.80;1.98;;;;;;;21.32;69.52;98506.31;5162277;28;20603;-73
2022/06/24 01:54:04;;;;;;;4.43;1.75;;;;;;;21.16;69.65;98502.34;5161343;28;20068;-72
2022/06/24 01:56:54;;;;;;;5.22;1.90;;;;;;;21.42;68.97;98511.19;5159902;28;20128;-71
2022/06/24 01:59:45;;;;;;;5.05;1.80;;;;;;;21.18;69.15;98488.63;5160390;28;20485;-72
2022/06/24 02:02:36;;;;;;;7.07;1.92;;;;;;;21.28;69.92;98522.09;5162794;28;20632;-70
2022/06/24 02:05:31;;;;;;;6.45;2.30;;;;;;;20.90;71.26;98513.41;5162170;28;20201;-70
2022/06/24 02:08:21;;;;;;;5.20;2.13;;;;;;;21.44;69.08;98509.13;5160855;28;20057;-71
2022/06/24 02:14:23;;;;;;;7.97;2.15;;;;;;;21.26;69.56;98512.63;5162159;28;20065;-72
2022/06/24 02:17:13;;;;;;;8.32;2.60;;;;;;;21.24;69.56;98520.09;5162577;28;20046;-72
2022/06/24 02:20:04;;;;;;;7.03;3.15;;;;;;;21.16;69.89;98513.13;5162773;28;20489;-72
2022/06/24 02:22:54;;;;;;;7.38;2.53;;;;;;;21.08;70.50;98506.16;5162748;28;20412;-70
2022/06/24 02:25:46;;;;;;;13.27;3.95;;;;;;;21.17;69.91;98503.19;5157810;28;20432;-72
2022/06/24 02:28:36;;;;;;;11.82;3.10;;;;;;;20.89;70.51;98482.91;5161484;28;20081;-70
2022/06/24 02:31:27;;;;;;;9.05;3.30;;;;;;;21.02;70.02;98488.16;5161005;28;20209;-71
2022/06/24 02:34:17;;;;;;;10.38;3.22;;;;;;;21.18;69.26;98481.38;5162488;28;20062;-71
2022/06/24 02:37:07;;;;;;;15.65;3.33;;;;;;;21.04;69.39;98488.78;5159282;28;20053;-71
2022/06/24 02:40:45;;;;;;;9.15;3.20;;;;;;;21.10;69.39;98482.50;5161514;28;20528;-72
2022/06/24 02:43:18;;;;;;;10.45;3.00;;;;;;;21.18;68.96;98489.47;5162183;28;20053;-71
2022/06/24 02:46:13;;;;;;;7.22;2.58;;;;;;;20.91;69.52;98470.06;5160858;28;20539;-71
2022/06/24 02:49:04;;;;;;;10.30;2.88;;;;;;;20.83;69.81;98481.97;5160818;28;20057;-71
2022/06/24 02:51:54;;;;;;;8.25;3.40;;;;;;;20.52;69.47;98472.06;5155821;28;20485;-71
2022/06/24 02:54:44;;;;;;;7.05;2.85;;;;;;;20.74;69.72;98490.53;5158243;28;20046;-71
2022/06/24 02:57:34;;;;;;;6.72;2.72;;;;;;;20.61;70.07;98488.78;5162071;28;20050;-72
2022/06/24 03:00:24;;;;;;;6.82;2.70;;;;;;;20.46;70.13;98475.63;5161760;28;20489;-70
2022/06/24 03:03:21;;;;;;;6.90;2.80;;;;;;;20.40;70.63;98476.53;5160026;28;20053;-73
2022/06/24 03:06:11;;;;;;;11.27;3.28;;;;;;;20.32;70.40;98506.38;5161701;28;20050;-71
2022/06/24 03:09:01;;;;;;;10.95;3.10;;;;;;;20.42;69.96;98498.66;5160624;28;20053;-71
2022/06/24 03:11:52;;;;;;;8.60;3.60;;;;;;;20.39;69.95;98480.22;5158572;28;20408;-72
2022/06/24 03:14:42;;;;;;;7.43;2.78;;;;;;;20.54;69.52;98494.22;5161549;28;20176;-71
2022/06/24 03:17:34;;;;;;;10.20;3.17;;;;;;;20.51;69.79;98496.53;5161281;28;20192;-71
2022/06/24 03:20:24;;;;;;;8.30;3.05;;;;;;;20.39;69.50;98474.84;5161605;28;20062;-71
2022/06/24 03:23:16;;;;;;;9.50;2.88;;;;;;;20.42;69.57;98496.78;5158866;28;20168;-71
2022/06/24 03:26:06;;;;;;;4.90;2.65;;;;;;;20.26;69.83;98491.91;5160889;28;20065;-70
2022/06/24 03:28:56;;;;;;;10.57;3.25;;;;;;;20.32;69.53;98487.53;5159692;28;20109;-70
2022/06/24 03:31:46;;;;;;;10.18;3.40;;;;;;;20.61;69.22;98488.78;5158251;28;20459;-70
2022/06/24 03:34:36;;;;;;;13.10;3.05;;;;;;;20.28;70.06;98495.22;5160048;28;20140;-70
2022/06/24 03:37:28;;;;;;;11.32;3.40;;;;;;;20.18;70.10;98495.72;5160671;28;20057;-70
2022/06/24 03:40:18;;;;;;;15.10;4.20;;;;;;;20.10;70.40;98485.22;5158605;28;20054;-70
2022/06/24 03:43:08;;;;;;;8.13;3.00;;;;;;;20.02;70.20;98487.34;5160675;28;20054;-70
2022/06/24 03:46:02;;;;;;;11.38;3.20;;;;;;;19.93;70.77;98487.63;5157075;28;20548;-72
2022/06/24 03:48:53;;;;;;;10.73;2.83;;;;;;;20.01;70.29;98481.16;5160710;28;20157;-72
2022/06/24 03:51:43;;;;;;;11.02;2.95;;;;;;;19.97;70.44;98482.63;5155763;28;20081;-72
2022/06/24 03:54:33;;;;;;;6.75;2.78;;;;;;;20.01;70.58;98477.63;5158669;28;20528;-72
2022/06/24 03:57:24;;;;;;;11.65;2.63;;;;;;;19.68;70.04;98430.22;5160831;28;20721;-71
2022/06/24 04:00:15;;;;;;;11.35;3.03;;;;;;;19.71;70.07;98452.13;5160246;28;20073;-72
2022/06/24 04:03:05;;;;;;;9.13;2.33;;;;;;;19.79;69.18;98474.44;5158359;28;20566;-72
2022/06/24 04:05:56;;;;;;;11.38;2.70;;;;;;;19.65;69.84;98461.06;5159592;28;20416;-72
2022/06/24 04:08:46;;;;;;;9.07;2.75;;;;;;;19.73;70.90;98480.69;5160203;28;20416;-71
2022/06/24 04:11:36;;;;;;;9.23;2.65;;;;;;;19.57;70.67;98455.91;5156629;28;20058;-72
2022/06/24 04:17:36;;;;;;;6.15;2.63;;;;;;;19.65;70.13;98469.13;5158254;28;20050;-71
2022/06/24 04:20:26;;;;;;;10.48;2.63;;;;;;;19.81;70.11;98477.75;5160306;28;20521;-70
2022/06/24 04:23:16;;;;;;;11.00;2.92;;;;;;;20.01;69.89;98475.75;5159325;28;20076;-70
2022/06/24 04:26:07;;;;;;;9.18;3.25;;;;;;;20.13;70.32;98476.72;5158581;28;20054;-70
2022/06/24 04:28:57;;;;;;;9.77;3.30;;;;;;;20.36;69.52;98484.22;5156496;28;20501;-70
2022/06/24 04:31:47;;;;;;;7.97;3.50;;;;;;;20.37;69.76;98483.16;5158326;28;20657;-69
2022/06/24 04:34:40;;;;;;;11.60;3.30;;;;;;;20.39;69.71;98472.16;5158867;28;20148;-71
2022/06/24 04:37:31;;;;;;;12.13;3.33;;;;;;;20.32;70.61;98474.91;5159547;28;20065;-70
2022/06/24 04:40:21;;;;;;;12.45;3.42;;;;;;;20.30;70.33;98477.00;5153866;28;20332;-72
2022/06/24 04:43:12;;;;;;;10.60;3.97;;;;;;;20.25;71.04;98482.22;5157778;28;20510;-71
2022/06/24 04:46:27;;;;;;;16.13;3.85;;;;;;;20.30;71.21;98477.00;5151193;28;20062;-69
2022/06/24 04:49:18;;;;;;;11.80;4.22;;;;;;;20.23;71.00;98448.47;5165548;28;20641;-81
2022/06/24 04:52:08;;;;;;;8.98;3.72;;;;;;;20.13;70.67;98433.66;5167529;28;20087;-82
2022/06/24 04:55:00;;;;;;;16.23;4.07;;;;;;;20.15;71.96;98453.09;5172983;28;20113;-81
2022/06/24 04:57:51;;;;;;;15.32;4.22;;;;;;;20.42;71.23;98442.91;5178500;28;20069;-81
2022/06/24 05:00:41;;;;;;;10.95;4.28;;;;;;;20.71;69.25;98464.03;5159002;28;20262;-82
2022/06/24 05:03:31;;;;;;;11.93;3.80;;;;;;;20.37;70.30;98423.91;5166164;28;20762;-83
2022/06/24 05:06:22;;;;;;;14.25;4.30;;;;;;;20.31;71.30;98435.56;5168094;28;20562;-81
2022/06/24 05:09:12;;;;;;;13.40;4.35;;;;;;;20.35;71.30;98442.16;5146522;28;20129;-82
2022/06/24 05:12:03;;;;;;;11.95;4.55;;;;;;;20.57;70.85;98461.47;5149790;28;20093;-81
2022/06/24 05:14:53;;;;;;;10.30;3.95;;;;;;;20.69;69.79;98445.41;5171152;28;20057;-82
2022/06/24 05:17:45;;;;;;;8.55;3.83;;;;;;;20.80;70.18;98470.81;5158996;28;20050;-81
2022/06/24 05:20:36;;;;;;;16.27;4.28;;;;;;;20.62;69.58;98477.78;5165744;28;20061;-82
2022/06/24 05:23:28;;;;;;;13.88;3.58;;;;;;;20.70;69.87;98462.41;5167278;28;20062;-84
2022/06/24 05:26:19;;;;;;;14.73;4.43;;;;;;;20.81;69.23;98465.19;5174620;28;20046;-83
2022/06/24 05:29:10;;;;;;;10.88;3.83;;;;;;;20.99;69.54;98460.84;5165431;28;20054;-82
2022/06/24 05:32:01;;;;;;;16.85;4.40;;;;;;;21.19;67.55;98447.13;5164822;28;20172;-82
2022/06/24 05:34:52;;;;;;;10.82;3.58;;;;;;;20.91;68.74;98444.97;5155517;28;20093;-83
2022/06/24 05:37:43;;;;;;;17.95;4.07;;;;;;;21.42;67.83;98460.78;5151943;28;20046;-82
2022/06/24 05:40:33;;;;;;;14.77;4.32;;;;;;;21.41;68.11;98440.25;5155315;28;20058;-82
2022/06/24 05:43:23;;;;;;;12.35;4.35;;;;;;;21.47;67.66;98446.63;5169934;28;20077;-83
2022/06/24 05:46:13;;;;;;;14.68;3.88;;;;;;;21.55;68.08;98449.00;5170833;28;20108;-83
2022/06/24 05:49:04;;;;;;;13.55;4.00;;;;;;;21.65;67.81;98440.38;5167552;28;20052;-82
2022/06/24 05:51:54;;;;;;;12.13;3.72;;;;;;;21.53;68.78;98438.44;5166743;28;20053;-81
2022/06/24 05:55:03;;;;;;;12.13;4.20;;;;;;;21.78;69.35;98451.78;5162213;28;20141;-81
2022/06/24 05:57:54;;;;;;;13.38;4.15;;;;;;;21.81;68.01;98451.31;5180525;28;20061;-81
2022/06/24 06:00:44;;;;;;;15.00;4.60;;;;;;;22.12;68.01;98448.59;5163141;28;20435;-81
2022/06/24 06:03:34;;;;;;;9.98;3.85;;;;;;;22.20;66.77;98442.91;5163533;28;20065;-81
2022/06/24 06:06:25;;;;;;;12.15;3.83;;;;;;;22.08;66.80;98426.63;5165373;28;20057;-81
2022/06/24 06:09:15;;;;;;;10.20;3.60;;;;;;;22.21;67.01;98436.44;5167075;28;20046;-81
2022/06/24 06:12:06;;;;;;;17.90;3.80;;;;;;;22.08;66.21;98439.31;5168873;28;20057;-82
2022/06/24 06:14:56;;;;;;;13.05;3.90;;;;;;;22.46;66.96;98453.28;5171324;28;20058;-81
2022/06/24 06:17:46;;;;;;;13.07;4.35;;;;;;;22.48;66.59;98434.97;5147757;28;20058;-81
2022/06/24 06:20:37;;;;;;;15.55;4.47;;;;;;;22.49;66.76;98430.38;5152251;28;20559;-81
2022/06/24 06:23:36;;;;;;;14.48;4.28;;;;;;;22.54;65.70;98448.56;5177625;28;20080;-81
2022/06/24 06:26:28;;;;;;;12.57;4.03;;;;;;;22.50;66.16;98454.44;5166658;28;20069;-81
2022/06/24 06:29:19;;;;;;;13.10;4.82;;;;;;;22.44;65.92;98435.63;5150008;28;20046;-83
2022/06/24 06:32:09;;;;;;;17.98;5.95;;;;;;;22.91;65.39;98443.72;5169495;28;20113;-82
2022/06/24 06:35:00;;;;;;;11.13;4.75;;;;;;;22.68;66.08;98445.41;5146451;28;20046;-82
2022/06/24 06:37:50;;;;;;;14.98;4.53;;;;;;;23.00;65.88;98453.16;5163413;28;20054;-82
2022/06/24 06:40:41;;;;;;;9.40;4.05;;;;;;;22.98;65.93;98439.91;5166038;28;20061;-82
2022/06/24 06:43:31;;;;;;;12.70;4.22;;;;;;;23.29;64.94;98455.94;5163185;28;20057;-84
2022/06/24 06:46:21;;;;;;;13.88;4.35;;;;;;;23.59;65.47;98450.31;5166723;28;20507;-83
2022/06/24 06:49:11;;;;;;;13.30;4.60;;;;;;;23.82;63.31;98438.59;5156613;28;20050;-84
2022/06/24 06:52:02;;;;;;;11.18;3.88;;;;;;;24.04;60.96;98452.22;5159704;28;20133;-84
2022/06/24 06:54:53;;;;;;;9.02;3.05;;;;;;;24.89;60.21;98450.34;5157786;28;20520;-82
2022/06/24 06:57:43;;;;;;;9.18;2.88;;;;;;;25.37;58.72;98443.41;5157752;28;20109;-82
2022/06/24 07:00:33;;;;;;;16.50;3.35;;;;;;;25.04;60.55;98424.25;5161226;28;20155;-83
2022/06/24 07:03:24;;;;;;;8.35;2.90;;;;;;;25.13;59.80;98435.50;5168358;28;20070;-83
2022/06/24 07:06:14;;;;;;;11.50;2.85;;;;;;;24.52;58.23;98423.78;5163080;28;20061;-81
2022/06/24 07:09:04;;;;;;;8.65;2.40;;;;;;;24.68;57.88;98431.09;5163791;28;20058;-82
2022/06/24 07:11:55;;;;;;;10.57;1.90;;;;;;;25.22;55.23;98444.84;5162531;28;20107;-81
2022/06/24 07:14:45;;;;;;;10.80;2.58;;;;;;;25.39;55.76;98433.13;5168188;28;20065;-83
2022/06/24 07:17:37;;;;;;;10.77;2.80;;;;;;;26.65;54.51;98426.44;5164922;28;20844;-83
2022/06/24 07:20:28;;;;;;;7.57;2.35;;;;;;;27.13;51.97;98436.28;5158989;28;20096;-83
2022/06/24 07:23:18;;;;;;;15.70;2.58;;;;;;;27.61;48.98;98431.53;5166400;28;20128;-82
2022/06/24 07:26:09;;;;;;;7.47;2.45;;;;;;;27.93;48.77;98440.63;5175884;28;20050;-80
2022/06/24 07:28:59;;;;;;;12.68;2.20;;;;;;;27.73;47.63;98427.75;5166220;28;20061;-80
2022/06/24 07:31:49;;;;;;;5.32;2.00;;;;;;;28.94;47.28;98441.66;5163517;28;20061;-80
2022/06/24 07:34:46;;;;;;;5.93;2.08;;;;;;;27.61;49.32;98441.59;5168165;28;20054;-79
2022/06/24 07:37:37;;;;;;;9.88;2.45;;;;;;;26.00;52.33;98412.88;5162111;28;20062;-80
2022/06/24 07:40:27;;;;;;;9.55;2.33;;;;;;;28.53;46.83;98449.94;5160876;28;20172;-80
2022/06/24 07:43:17;;;;;;;12.02;2.60;;;;;;;30.00;46.31;98438.75;5162835;28;20058;-79
2022/06/24 07:46:08;;;;;;;8.77;1.95;;;;;;;29.06;46.26;98431.31;5167935;28;20062;-81
2022/06/24 07:48:59;;;;;;;10.68;2.40;;;;;;;28.66;47.47;98410.38;5178901;28;20508;-79
2022/06/24 07:51:50;;;;;;;6.65;1.90;;;;;;;30.23;43.62;98429.06;5163947;28;20050;-80
2022/06/24 07:54:40;;;;;;;8.05;2.20;;;;;;;30.11;45.63;98418.47;5150072;28;20050;-80
2022/06/24 07:57:31;;;;;;;7.22;1.92;;;;;;;31.00;42.98;98412.75;5176961;28;20054;-80
2022/06/24 08:00:21;;;;;;;7.90;1.85;;;;;;;29.92;43.34;98416.41;5162574;28;20090;-80
2022/06/24 08:03:12;;;;;;;12.90;2.08;;;;;;;29.08;44.54;98412.75;5165075;28;20057;-80
2022/06/24 08:06:02;;;;;;;10.68;2.67;;;;;;;27.69;48.62;98413.88;5192995;28;20053;-81
2022/06/24 08:08:52;;;;;;;5.63;2.08;;;;;;;28.27;48.50;98416.38;5177146;28;20065;-81
2022/06/24 08:11:43;;;;;;;7.78;2.25;;;;;;;28.60;45.22;98414.19;5156440;28;20141;-81
2022/06/24 08:14:34;;;;;;;12.23;2.63;;;;;;;28.25;47.36;98402.22;5163819;28;20054;-81
2022/06/24 08:17:26;;;;;;;8.13;2.00;;;;;;;27.96;48.91;98391.84;5168310;28;20057;-81
2022/06/24 08:20:17;;;;;;;10.30;2.10;;;;;;;27.17;48.59;98388.38;5164012;28;20133;-81
2022/06/24 08:23:08;;;;;;;6.80;2.15;;;;;;;26.17;52.59;98393.72;5167531;28;20055;-81
2022/06/24 08:25:58;;;;;;;8.93;2.22;;;;;;;26.16;53.40;98411.13;5168643;28;20081;-81
2022/06/24 08:28:48;;;;;;;8.55;3.00;;;;;;;25.34;55.21;98389.66;5169510;28;20054;-81
2022/06/24 08:31:39;;;;;;;13.38;2.60;;;;;;;25.99;53.74;98405.81;5170432;28;20428;-81
2022/06/24 08:34:29;;;;;;;5.97;2.03;;;;;;;25.77;53.03;98400.41;5170983;28;20116;-80
2022/06/24 08:37:19;;;;;;;10.77;2.50;;;;;;;24.48;56.42;98395.56;5171230;28;20148;-81
2022/06/24 08:40:10;;;;;;;9.90;2.63;;;;;;;25.18;55.08;98383.22;5160669;28;20061;-80
2022/06/24 08:43:01;;;;;;;8.60;2.50;;;;;;;25.64;53.40;98378.28;5155445;28;20065;-80
2022/06/24 08:45:52;;;;;;;9.13;2.20;;;;;;;26.80;53.14;98380.31;5170823;28;20060;-81
2022/06/24 08:48:43;;;;;;;7.63;2.83;;;;;;;26.81;51.59;98390.09;5166758;28;20042;-81
2022/06/24 08:51:36;;;;;;;8.40;2.30;;;;;;;26.37;50.68;98390.34;5170083;28;20108;-80
2022/06/24 08:54:30;;;;;;;5.28;2.40;;;;;;;27.27;52.33;98395.78;5169357;28;20600;-81
2022/06/24 08:57:21;;;;;;;6.80;2.17;;;;;;;26.71;50.64;98392.75;5172840;28;20085;-81
2022/06/24 09:00:12;;;;;;;4.97;2.30;;;;;;;25.97;52.64;98388.13;5173865;28;20060;-80
2022/06/24 09:03:03;;;;;;;15.23;2.63;;;;;;;26.31;51.78;98368.84;5168727;28;20462;-81
2022/06/24 09:05:53;;;;;;;10.20;2.50;;;;;;;26.41;53.42;98372.44;5171517;28;20077;-81
2022/06/24 09:08:53;;;;;;;8.50;2.67;;;;;;;26.31;52.67;98356.06;5166818;28;20065;-81
2022/06/24 09:11:44;;;;;;;15.25;2.78;;;;;;;26.46;52.41;98372.47;5168925;28;20070;-80
2022/06/24 09:14:45;;;;;;;9.20;2.85;;;;;;;26.88;50.21;98376.25;5170083;28;20061;-81
2022/06/24 09:17:37;;;;;;;4.85;2.13;;;;;;;27.53;49.79;98366.72;5172636;28;20054;-81
2022/06/24 09:20:29;;;;;;;9.00;2.30;;;;;;;28.54;47.15;98370.59;5172116;28;20089;-81
2022/06/24 09:23:23;;;;;;;7.47;2.60;;;;;;;29.73;45.07;98356.16;5182192;28;20512;-81
2022/06/24 09:26:13;;;;;;;8.73;2.42;;;;;;;29.84;47.08;98354.16;5161639;28;20104;-81
2022/06/24 09:29:10;;;;;;;13.55;2.35;;;;;;;30.51;43.91;98370.00;5150339;28;20185;-81
2022/06/24 09:32:05;;;;;;;5.00;2.03;;;;;;;31.13;40.67;98360.81;5146221;28;20054;-81
2022/06/24 09:35:03;;;;;;;6.30;1.98;;;;;;;30.25;44.71;98353.84;5163583;28;20058;-78
2022/06/24 09:37:53;;;;;;;11.50;2.50;;;;;;;31.15;42.17;98352.31;5166187;28;20058;-81
2022/06/24 09:40:44;;;;;;;6.35;1.92;;;;;;;32.04;42.47;98346.09;5149526;28;20495;-81
2022/06/24 09:43:34;;;;;;;5.80;1.98;;;;;;;31.89;38.69;98354.56;5170482;28;20431;-80
2022/06/24 09:46:26;;;;;;;7.68;2.08;;;;;;;30.56;41.90;98356.25;5164762;28;20516;-80
2022/06/24 09:49:17;;;;;;;5.18;2.03;;;;;;;29.55;44.29;98348.59;5150914;28;20111;-80
2022/06/24 09:52:09;;;;;;;7.97;2.25;;;;;;;29.31;43.74;98355.88;5161884;28;20042;-81
2022/06/24 09:55:01;;;;;;;7.20;2.83;;;;;;;27.83;46.46;98359.69;5165064;28;20053;-80
2022/06/24 09:57:52;;;;;;;8.38;2.15;;;;;;;27.17;48.00;98353.00;5164777;28;20520;-81
2022/06/24 10:00:43;;;;;;;7.03;2.28;;;;;;;27.48;48.09;98344.91;5161728;28;20058;-80
2022/06/24 10:03:35;;;;;;;7.32;1.92;;;;;;;27.37;48.35;98363.13;5167163;28;20076;-81
2022/06/24 10:06:28;;;;;;;7.93;1.88;;;;;;;27.90;48.39;98351.25;5163511;28;20042;-80
2022/06/24 10:09:25;;;;;;;6.68;2.33;;;;;;;27.48;48.16;98350.34;5169369;28;20082;-80
2022/06/24 10:12:21;;;;;;;6.60;2.30;;;;;;;27.33;47.84;98347.63;5162496;28;20096;-81
2022/06/24 10:15:14;;;;;;;11.05;2.40;;;;;;;27.96;48.60;98356.44;5152535;28;20056;-81
2022/06/24 10:18:08;;;;;;;12.63;2.80;;;;;;;28.80;47.32;98340.50;5164442;28;20068;-80
2022/06/24 10:21:01;;;;;;;7.95;2.22;;;;;;;30.30;43.80;98359.28;5162777;28;20101;-80
2022/06/24 10:23:53;;;;;;;4.97;2.10;;;;;;;30.31;43.67;98341.75;5165683;28;20062;-81
2022/06/24 10:26:48;;;;;;;11.48;2.25;;;;;;;30.67;40.69;98350.41;5165141;28;20125;-81
2022/06/24 10:29:38;;;;;;;9.57;2.15;;;;;;;30.31;40.17;98325.34;5166596;28;20114;-80
2022/06/24 10:32:29;;;;;;;7.82;2.05;;;;;;;29.43;42.55;98342.66;5165419;28;20055;-81
2022/06/24 10:35:19;;;;;;;6.57;1.90;;;;;;;28.75;44.42;98352.25;5154248;28;20058;-83
2022/06/24 10:38:10;;;;;;;11.23;3.10;;;;;;;27.69;45.83;98358.56;5164535;28;20053;-83
2022/06/24 10:41:02;;;;;;;5.35;1.88;;;;;;;28.18;44.78;98355.31;5155061;28;20132;-79
2022/06/24 10:43:54;;;;;;;11.85;2.22;;;;;;;28.93;45.06;98344.53;5145157;28;20049;-79
2022/06/24 10:46:44;;;;;;;2.85;1.73;;;;;;;28.75;44.25;98326.88;5154799;28;20091;-83
2022/06/24 10:49:55;;;;;;;6.93;2.30;;;;;;;28.27;45.65;98348.22;5144835;28;20108;-82
2022/06/24 10:52:47;;;;;;;5.03;2.08;;;;;;;27.99;45.65;98353.16;5144699;28;20050;-79
2022/06/24 10:55:38;;;;;;;4.47;1.45;;;;;;;27.64;46.01;98346.56;5167637;28;20081;-78
2022/06/24 10:58:29;;;;;;;5.00;1.55;;;;;;;29.19;43.23;98348.00;5164792;28;20061;-81
2022/06/24 11:01:20;;;;;;;2.80;1.70;;;;;;;28.75;42.26;98327.69;5171302;28;20403;-81
2022/06/24 11:04:21;;;;;;;5.32;1.67;;;;;;;28.01;43.59;98334.66;5172597;28;20060;-81
2022/06/24 11:07:21;;;;;;;4.10;1.35;;;;;;;28.80;45.73;98329.56;5173696;28;20061;-82
2022/06/24 11:10:20;;;;;;;4.80;1.45;;;;;;;28.70;44.42;98321.44;5158821;28;20139;-82
2022/06/24 11:13:12;;;;;;;1.77;1.40;;;;;;;29.98;42.65;98320.72;5170428;28;20042;-82
2022/06/24 11:16:02;;;;;;;12.30;1.77;;;;;;;30.37;42.15;98324.19;5169244;28;20261;-81
2022/06/24 11:18:53;;;;;;;1.42;1.10;;;;;;;28.54;42.10;98310.59;5171154;28;20073;-82
2022/06/24 11:21:49;;;;;;;3.83;1.40;;;;;;;29.53;43.87;98317.19;5169403;28;20085;-82
2022/06/24 11:24:40;;;;;;;7.60;1.70;;;;;;;28.64;42.82;98314.34;5167136;28;20093;-82
2022/06/24 11:27:37;;;;;;;4.20;1.52;;;;;;;28.65;40.83;98326.91;5166891;28;20417;-82
2022/06/24 11:30:27;;;;;;;2.45;1.38;;;;;;;29.48;43.73;98324.34;5167747;28;20531;-81
2022/06/24 11:33:18;;;;;;;6.18;1.48;;;;;;;28.95;40.52;98331.44;5167484;28;20065;-82
2022/06/24 11:36:09;;;;;;;3.15;1.33;;;;;;;28.84;41.29;98318.91;5179411;28;20053;-81
2022/06/24 11:39:04;;;;;;;2.85;0.98;;;;;;;28.50;39.30;98314.94;5167858;28;20741;-81
2022/06/24 11:41:55;;;;;;;2.60;1.20;;;;;;;29.50;37.54;98316.69;5167307;28;20535;-81
2022/06/24 11:44:45;;;;;;;2.38;1.10;;;;;;;28.38;39.74;98311.69;5166383;28;20108;-83
2022/06/24 11:47:35;;;;;;;2.92;0.95;;;;;;;28.28;39.37;98300.81;5165247;28;20057;-83
2022/06/24 11:50:27;;;;;;;3.65;0.93;;;;;;;28.45;39.85;98298.63;5164398;28;20121;-82
2022/06/24 11:53:25;;;;;;;2.95;1.35;;;;;;;28.76;42.67;98274.75;5164294;28;20633;-81
2022/06/24 11:56:15;;;;;;;2.85;0.80;;;;;;;27.96;39.68;98288.31;5167308;28;20097;-83
2022/06/24 11:59:07;;;;;;;2.00;1.05;;;;;;;27.91;43.64;98292.94;5154049;28;20116;-83
2022/06/24 12:01:58;;;;;;;3.08;1.30;;;;;;;27.93;41.70;98294.31;5166190;28;20065;-82
2022/06/24 12:04:49;;;;;;;2.15;1.00;;;;;;;28.77;38.28;98275.56;5169846;28;20061;-82
2022/06/24 12:07:40;;;;;;;4.38;1.40;;;;;;;28.67;41.22;98287.34;5166148;28;20069;-81
2022/06/24 12:10:30;;;;;;;4.00;1.08;;;;;;;29.43;38.40;98275.19;5167234;28;20116;-83
2022/06/24 12:13:33;;;;;;;3.63;1.08;;;;;;;29.76;37.06;98288.38;5168071;28;20057;-82
2022/06/24 12:16:25;;;;;;;3.75;0.90;;;;;;;28.95;37.72;98282.31;5165936;28;20058;-82
2022/06/24 12:19:16;;;;;;;1.73;0.90;;;;;;;28.51;39.82;98294.78;5180266;28;20043;-84
2022/06/24 12:22:08;;;;;;;2.83;1.13;;;;;;;28.64;39.30;98290.63;5163937;28;20046;-83
2022/06/24 12:25:05;;;;;;;5.57;1.10;;;;;;;28.69;38.45;98279.69;5150953;28;20042;-84
2022/06/24 12:27:55;;;;;;;1.25;0.90;;;;;;;28.01;41.04;98285.59;5163774;28;20055;-82
2022/06/24 12:31:01;;;;;;;3.85;1.00;;;;;;;28.93;37.86;98271.66;5166228;28;20054;-81
2022/06/24 12:33:56;;;;;;;1.08;0.80;;;;;;;28.42;37.08;98262.91;5169983;28;20053;-82
2022/06/24 12:36:46;;;;;;;2.50;0.90;;;;;;;29.19;37.89;98268.81;5164222;28;21312;-82
2022/06/24 12:39:38;;;;;;;2.03;0.85;;;;;;;28.42;37.28;98280.06;5150921;28;20073;-81
2022/06/24 12:42:29;;;;;;;1.77;0.80;;;;;;;28.15;38.96;98264.03;5177168;28;20412;-81
2022/06/24 12:45:25;;;;;;;8.27;1.10;;;;;;;28.07;37.81;98278.22;5145138;28;20068;-81
2022/06/24 12:51:31;;;;;;;1.63;0.90;;;;;;;27.96;38.99;98265.72;5176720;28;20074;-82
2022/06/24 12:54:21;;;;;;;1.77;1.10;;;;;;;28.24;41.23;98276.00;5164208;28;20603;-83
2022/06/24 12:57:32;;;;;;;2.22;1.08;;;;;;;28.54;39.98;98279.75;5161688;28;20050;-80
2022/06/24 13:00:23;;;;;;;3.05;0.88;;;;;;;28.01;39.99;98295.66;5152694;28;20046;-80
2022/06/24 13:03:20;;;;;;;3.05;0.90;;;;;;;27.68;39.67;98281.47;5152432;28;20046;-80
2022/06/24 13:06:10;;;;;;;5.47;0.85;;;;;;;27.23;40.65;98290.44;5138977;28;20114;-80
2022/06/24 13:09:00;;;;;;;2.17;0.90;;;;;;;27.94;39.83;98287.75;5151796;28;20057;-81
2022/06/24 13:11:51;;;;;;;1.13;1.00;;;;;;;27.73;40.97;98275.22;5147628;28;20667;-80
2022/06/24 13:14:41;;;;;;;2.08;1.08;;;;;;;27.93;41.31;98299.75;5166439;28;20419;-81
2022/06/24 13:17:34;;;;;;;2.75;1.00;;;;;;;28.03;40.13;98296.22;5149202;28;20078;-81
2022/06/24 13:20:25;;;;;;;3.85;1.00;;;;;;;27.83;38.66;98267.88;5152418;28;20046;-81
2022/06/24 13:23:15;;;;;;;3.15;1.05;;;;;;;27.92;38.99;98272.81;5172911;28;20064;-81
2022/06/24 13:26:08;;;;;;;1.63;1.00;;;;;;;28.24;43.36;98288.81;5168894;28;20070;-80
2022/06/24 13:28:58;;;;;;;2.03;0.98;;;;;;;27.58;38.88;98276.03;5155596;28;20180;-80
2022/06/24 13:31:48;;;;;;;2.15;1.27;;;;;;;27.60;41.11;98274.69;5168194;28;21050;-81
2022/06/24 13:34:39;;;;;;;1.25;1.02;;;;;;;27.57;40.01;98269.78;5167181;28;20060;-81
2022/06/24 13:37:29;;;;;;;0.93;0.82;;;;;;;27.53;40.18;98259.72;5170889;28;20072;-81